Accueil
METAR-TAF:

METAR-TAF

Aéroports :

Aéroport de l'île de Chios

Chios, Grèce

latitude: 38-20N, longitude: 026-08E, altitude: 5 m

Observation

Le bulletin a été fait il y a 4 heures et 30 minutes, à 18:50 UTC
Vent 4 kt de nord/nord-ouest
Température 19°C
Humidité 68%
Pression 1015 hPa
Visibilité 10 km ou plus
pas de nuages en-dessous de 1500 mètres et pas de cumulonimbus.

METAR: LGHI 211850Z 34004KT CAVOK 19/13 Q1015

Heure: 02:20 (23:20 UTC)

Prévision

Le bulletin a été fait il y a 3 heures et 20 minutes, à 20:00 UTC
Prévision valable du 21 à 21 UTC au 22 à 06 UTC
Vent 12 kt de nord
Visibilité 10 km ou plus
Quelques nuages à une hauteur de 2000 ft

TAF: LGHI 212000Z 2121/2206 01012KT 9999 FEW020

Observations et prévisions météorologiques de plus de 4000 aéroports (messages METAR et TAF).

Les stations disponibles sont représentées par des disques jaunes et rouges sur la carte.

Passer la souris dessus pour voir le nom de la station.

Cliquer dessus pour voir les observations et prévisions météorologiques.

Pour changer de carte: cliquez sur les boutons verts avec une croix noire pour zoomer, sur le bouton vert avec un tiret pour effectuer un zoom arrière, ou sur les flèches vertes pour les cartes adjacentes.


METAR-TAF: